Time;durP1;ratioP1;P1;durP2;ratioP2;P2;SDS_P1;SDS_P2;PMS_P1;PMS_P2;Temp;Humidity;BMP_temperature;BMP_pressure;BME280_temperature;BME280_humidity;BME280_pressure;Samples;Min_cycle;Max_cycle;Signal;HPM_P1;HPM_P2
2024/01/09 00:02:20;;;;;;;11.00;3.78;;;;;;;;;;5009063;28;20107;-77
2024/01/09 00:04:45;;;;;;;11.13;4.10;;;;;;;;;;5009014;28;20058;-77
2024/01/09 00:07:10;;;;;;;9.32;3.50;;;;;;;;;;5008471;28;20534;-76
2024/01/09 00:09:36;;;;;;;4.88;2.45;;;;;;;;;;5011320;28;20407;-76
2024/01/09 00:12:01;;;;;;;7.47;2.92;;;;;;;;;;5017152;28;20040;-77
2024/01/09 00:14:27;;;;;;;6.82;3.00;;;;;;;;;;5029980;28;20122;-77
2024/01/09 00:16:52;;;;;;;4.88;2.60;;;;;;;;;;5030163;28;20041;-77
2024/01/09 00:19:17;;;;;;;9.15;4.22;;;;;;;;;;5029185;28;20061;-78
2024/01/09 00:21:46;;;;;;;9.27;4.45;;;;;;;;;;5030041;28;20041;-76
2024/01/09 00:24:11;;;;;;;8.02;3.33;;;;;;;;;;5028645;28;20045;-77
2024/01/09 00:26:44;;;;;;;7.68;3.53;;;;;;;;;;5030547;28;20049;-76
2024/01/09 00:29:09;;;;;;;7.47;2.75;;;;;;;;;;5031677;28;20037;-76
2024/01/09 00:31:35;;;;;;;10.07;3.83;;;;;;;;;;5037042;28;20038;-76
2024/01/09 00:34:00;;;;;;;6.90;3.10;;;;;;;;;;5040496;28;20051;-76
2024/01/09 00:36:26;;;;;;;5.97;2.70;;;;;;;;;;5030067;28;20104;-76
2024/01/09 00:38:51;;;;;;;7.10;3.05;;;;;;;;;;5027409;28;20158;-77
2024/01/09 00:41:17;;;;;;;4.28;1.95;;;;;;;;;;5029221;28;20037;-76
2024/01/09 00:43:42;;;;;;;7.93;2.75;;;;;;;;;;5011237;28;20868;-76
2024/01/09 00:46:07;;;;;;;5.25;2.25;;;;;;;;;;5007586;28;20045;-76
2024/01/09 00:48:33;;;;;;;6.95;3.22;;;;;;;;;;5009986;28;20076;-76
2024/01/09 00:50:59;;;;;;;7.18;3.33;;;;;;;;;;5009129;28;20038;-77
2024/01/09 00:53:24;;;;;;;3.30;2.28;;;;;;;;;;5009746;28;21053;-77
2024/01/09 00:55:49;;;;;;;9.13;2.95;;;;;;;;;;5009034;28;20052;-76
2024/01/09 00:58:15;;;;;;;6.20;3.08;;;;;;;;;;5009407;28;20519;-77
2024/01/09 01:00:40;;;;;;;5.20;2.83;;;;;;;;;;5008817;28;20033;-76
2024/01/09 01:03:05;;;;;;;4.50;1.83;;;;;;;;;;5008750;28;20507;-77
2024/01/09 01:05:33;;;;;;;6.70;2.67;;;;;;;;;;5008844;28;20041;-76
2024/01/09 01:07:58;;;;;;;7.07;3.28;;;;;;;;;;5006701;28;20049;-77
2024/01/09 01:10:23;;;;;;;5.18;3.20;;;;;;;;;;5008684;28;20034;-77
2024/01/09 01:12:49;;;;;;;7.13;2.95;;;;;;;;;;5007991;28;20057;-77
2024/01/09 01:15:14;;;;;;;10.77;5.25;;;;;;;;;;5008759;28;20030;-77
2024/01/09 01:17:39;;;;;;;8.43;3.20;;;;;;;;;;5009017;28;20119;-77
2024/01/09 01:20:06;;;;;;;8.27;3.83;;;;;;;;;;5006706;28;20065;-76
2024/01/09 01:22:31;;;;;;;7.60;3.00;;;;;;;;;;5008388;28;20050;-77
2024/01/09 01:24:56;;;;;;;11.55;3.70;;;;;;;;;;5008338;28;20108;-77
2024/01/09 01:27:22;;;;;;;5.45;2.92;;;;;;;;;;5009357;28;20403;-77
2024/01/09 01:29:47;;;;;;;6.60;2.92;;;;;;;;;;5010809;28;20073;-77
2024/01/09 01:32:12;;;;;;;7.53;3.20;;;;;;;;;;5011985;28;20052;-77
2024/01/09 01:34:38;;;;;;;10.00;3.72;;;;;;;;;;5008847;28;20050;-77
2024/01/09 01:37:03;;;;;;;4.00;2.90;;;;;;;;;;5012418;28;20080;-77
2024/01/09 01:39:29;;;;;;;7.15;3.45;;;;;;;;;;5028461;28;20114;-77
2024/01/09 01:41:54;;;;;;;9.48;5.20;;;;;;;;;;5027476;28;20087;-77
2024/01/09 01:44:19;;;;;;;7.28;3.30;;;;;;;;;;5008569;28;20038;-77
2024/01/09 01:46:46;;;;;;;7.03;3.80;;;;;;;;;;5007397;28;20048;-77
2024/01/09 01:49:14;;;;;;;9.20;3.70;;;;;;;;;;5011331;28;22250;-77
2024/01/09 01:51:40;;;;;;;7.47;3.47;;;;;;;;;;5018614;28;20034;-76
2024/01/09 01:54:06;;;;;;;6.32;2.50;;;;;;;;;;5024950;28;20040;-77
2024/01/09 01:56:32;;;;;;;5.22;2.58;;;;;;;;;;5012708;28;20030;-77
2024/01/09 01:58:58;;;;;;;8.07;2.90;;;;;;;;;;5009600;28;20040;-77
2024/01/09 02:01:24;;;;;;;7.65;3.67;;;;;;;;;;5008914;28;20605;-76
2024/01/09 02:03:50;;;;;;;9.05;3.55;;;;;;;;;;5009021;28;20145;-77
2024/01/09 02:06:15;;;;;;;8.48;3.83;;;;;;;;;;5006869;28;20042;-77
2024/01/09 02:08:43;;;;;;;7.40;3.10;;;;;;;;;;5008468;28;20048;-77
2024/01/09 02:11:09;;;;;;;7.78;2.63;;;;;;;;;;5006089;28;20046;-77
2024/01/09 02:13:35;;;;;;;4.40;2.47;;;;;;;;;;5008247;28;20041;-77
2024/01/09 02:16:00;;;;;;;8.18;3.33;;;;;;;;;;5007476;28;20088;-77
2024/01/09 02:18:26;;;;;;;6.70;2.78;;;;;;;;;;5008355;28;20038;-77
2024/01/09 02:20:52;;;;;;;9.48;3.60;;;;;;;;;;5009025;28;20084;-76
2024/01/09 02:23:18;;;;;;;10.55;4.13;;;;;;;;;;5008295;28;20065;-77
2024/01/09 02:25:44;;;;;;;6.22;3.22;;;;;;;;;;5006294;28;20045;-77
2024/01/09 02:28:33;;;;;;;7.28;3.08;;;;;;;;;;5007366;28;20032;-77
2024/01/09 02:30:59;;;;;;;6.78;2.83;;;;;;;;;;5007861;28;20038;-77
2024/01/09 02:33:27;;;;;;;6.55;3.10;;;;;;;;;;5008854;28;20981;-77
2024/01/09 02:35:52;;;;;;;4.57;2.05;;;;;;;;;;5010341;28;20145;-77
2024/01/09 02:38:20;;;;;;;12.15;4.60;;;;;;;;;;5024024;28;20124;-77
2024/01/09 02:40:46;;;;;;;7.03;2.60;;;;;;;;;;5029339;28;20048;-77
2024/01/09 02:43:11;;;;;;;5.82;2.83;;;;;;;;;;5018099;28;22702;-77
2024/01/09 02:45:36;;;;;;;7.18;3.47;;;;;;;;;;5012687;28;20478;-77
2024/01/09 02:48:02;;;;;;;4.22;1.85;;;;;;;;;;5011826;28;20479;-76
2024/01/09 02:50:27;;;;;;;5.43;2.88;;;;;;;;;;5011617;28;20041;-77
2024/01/09 02:52:52;;;;;;;11.38;3.85;;;;;;;;;;5011625;28;20029;-77
2024/01/09 02:55:18;;;;;;;10.10;3.33;;;;;;;;;;5011950;28;20052;-77
2024/01/09 02:57:43;;;;;;;5.57;2.83;;;;;;;;;;5012398;28;20030;-77
2024/01/09 03:00:10;;;;;;;7.68;2.90;;;;;;;;;;5011033;28;20042;-77
2024/01/09 03:02:36;;;;;;;6.78;3.40;;;;;;;;;;5011368;28;20575;-77
2024/01/09 03:05:06;;;;;;;8.07;2.58;;;;;;;;;;5010197;28;20068;-77
2024/01/09 03:07:33;;;;;;;3.50;1.90;;;;;;;;;;5011075;28;20038;-77
2024/01/09 03:09:58;;;;;;;4.45;2.20;;;;;;;;;;5016469;28;20483;-77
2024/01/09 03:12:23;;;;;;;5.50;2.88;;;;;;;;;;5023754;28;20028;-77
2024/01/09 03:14:49;;;;;;;8.82;4.00;;;;;;;;;;5016508;28;20056;-77
2024/01/09 03:17:14;;;;;;;6.53;3.78;;;;;;;;;;5011228;28;20109;-76
2024/01/09 03:19:41;;;;;;;4.20;2.58;;;;;;;;;;5009577;28;20073;-77
2024/01/09 03:22:06;;;;;;;5.05;2.00;;;;;;;;;;5011105;28;20117;-76
2024/01/09 03:24:31;;;;;;;6.03;2.55;;;;;;;;;;5010418;28;20113;-77
2024/01/09 03:26:57;;;;;;;7.68;3.20;;;;;;;;;;5010409;28;20052;-77
2024/01/09 03:29:22;;;;;;;8.05;4.00;;;;;;;;;;5010091;28;20038;-77
2024/01/09 03:31:47;;;;;;;7.07;3.25;;;;;;;;;;5010100;28;20133;-77
2024/01/09 03:34:13;;;;;;;8.07;3.20;;;;;;;;;;5008665;28;20038;-77
2024/01/09 03:36:38;;;;;;;9.38;3.70;;;;;;;;;;5010780;28;20033;-77
2024/01/09 03:39:04;;;;;;;7.82;3.35;;;;;;;;;;5031053;28;20047;-77
2024/01/09 03:41:31;;;;;;;11.43;3.90;;;;;;;;;;5027841;28;20067;-77
2024/01/09 03:43:57;;;;;;;5.38;2.55;;;;;;;;;;5029566;28;20056;-77
2024/01/09 03:46:22;;;;;;;8.60;3.45;;;;;;;;;;5029248;28;20037;-77
2024/01/09 03:48:48;;;;;;;7.35;2.65;;;;;;;;;;5029083;28;20025;-78
2024/01/09 03:51:13;;;;;;;6.25;2.88;;;;;;;;;;5029266;28;20064;-78
2024/01/09 03:53:38;;;;;;;8.30;3.35;;;;;;;;;;5030056;28;20037;-78
2024/01/09 03:56:04;;;;;;;8.27;3.22;;;;;;;;;;5028603;28;20087;-77
2024/01/09 03:58:29;;;;;;;8.57;2.72;;;;;;;;;;5029765;28;20037;-78
2024/01/09 04:00:55;;;;;;;6.40;2.38;;;;;;;;;;5029429;28;20033;-77
2024/01/09 04:03:20;;;;;;;7.57;3.65;;;;;;;;;;5021210;28;20034;-77
2024/01/09 04:05:45;;;;;;;8.27;3.60;;;;;;;;;;5029826;28;20577;-77
2024/01/09 04:08:13;;;;;;;11.43;2.55;;;;;;;;;;5029059;28;20103;-77
2024/01/09 04:10:39;;;;;;;9.95;3.55;;;;;;;;;;5028402;28;20050;-77
2024/01/09 04:13:04;;;;;;;7.78;3.45;;;;;;;;;;5029569;28;20026;-78
2024/01/09 04:15:30;;;;;;;10.43;5.45;;;;;;;;;;5030821;28;20060;-77
2024/01/09 04:17:55;;;;;;;6.38;2.72;;;;;;;;;;5029829;28;20041;-78
2024/01/09 04:20:20;;;;;;;5.03;2.92;;;;;;;;;;5029609;28;20056;-78
2024/01/09 04:22:46;;;;;;;9.98;3.85;;;;;;;;;;5026912;28;20041;-77
2024/01/09 04:25:12;;;;;;;2.20;1.63;;;;;;;;;;5036617;28;20502;-78
2024/01/09 04:27:38;;;;;;;10.20;4.65;;;;;;;;;;5051708;28;20025;-78
2024/01/09 04:30:04;;;;;;;5.13;2.65;;;;;;;;;;5056354;28;20048;-78
2024/01/09 04:32:30;;;;;;;3.20;1.60;;;;;;;;;;5062757;28;20132;-77
2024/01/09 04:34:55;;;;;;;4.65;2.95;;;;;;;;;;5058929;28;20064;-77
2024/01/09 04:37:20;;;;;;;9.40;4.53;;;;;;;;;;5046311;28;20037;-78
2024/01/09 04:39:46;;;;;;;3.50;1.40;;;;;;;;;;5045959;28;20040;-78
2024/01/09 04:42:11;;;;;;;9.77;3.28;;;;;;;;;;5023384;28;20041;-78
2024/01/09 04:44:36;;;;;;;5.40;3.00;;;;;;;;;;5009196;28;20045;-77
2024/01/09 04:47:02;;;;;;;7.72;3.30;;;;;;;;;;5009620;28;20484;-77
2024/01/09 04:49:27;;;;;;;10.32;4.47;;;;;;;;;;5008495;28;20107;-77
2024/01/09 04:51:52;;;;;;;7.78;3.13;;;;;;;;;;5009465;28;20030;-76
2024/01/09 04:54:18;;;;;;;8.68;3.25;;;;;;;;;;5018765;28;20029;-77
2024/01/09 04:56:43;;;;;;;11.20;3.28;;;;;;;;;;5028501;28;20419;-77
2024/01/09 04:59:09;;;;;;;8.23;3.25;;;;;;;;;;5027500;28;20067;-77
2024/01/09 05:01:35;;;;;;;7.07;2.80;;;;;;;;;;5029127;28;20039;-77
2024/01/09 05:04:00;;;;;;;11.48;4.05;;;;;;;;;;5028587;28;20130;-78
2024/01/09 05:06:25;;;;;;;9.52;3.30;;;;;;;;;;5029427;28;20029;-77
2024/01/09 05:08:51;;;;;;;7.50;2.97;;;;;;;;;;5028921;28;20038;-77
2024/01/09 05:11:16;;;;;;;6.35;3.78;;;;;;;;;;5028768;28;20041;-78
2024/01/09 05:13:42;;;;;;;8.57;3.55;;;;;;;;;;5028265;28;20056;-78
2024/01/09 05:16:07;;;;;;;6.50;2.58;;;;;;;;;;5027067;28;20076;-78
2024/01/09 05:18:32;;;;;;;9.13;3.47;;;;;;;;;;5029481;28;20017;-77
2024/01/09 05:20:58;;;;;;;7.05;2.97;;;;;;;;;;5026757;28;20040;-77
2024/01/09 05:23:23;;;;;;;8.57;4.05;;;;;;;;;;5027454;28;20550;-77
2024/01/09 05:25:49;;;;;;;4.90;3.08;;;;;;;;;;5027325;28;20044;-78
2024/01/09 05:28:15;;;;;;;12.07;3.78;;;;;;;;;;5027211;28;20654;-77
2024/01/09 05:30:41;;;;;;;10.45;4.03;;;;;;;;;;5028343;28;20048;-77
2024/01/09 05:33:07;;;;;;;8.02;3.25;;;;;;;;;;5028414;28;20029;-78
2024/01/09 05:35:32;;;;;;;11.05;2.97;;;;;;;;;;5027069;28;20400;-77
2024/01/09 05:37:58;;;;;;;4.47;2.63;;;;;;;;;;5028300;28;20045;-77
2024/01/09 05:40:23;;;;;;;8.75;3.28;;;;;;;;;;5029191;28;20037;-78
2024/01/09 05:42:49;;;;;;;11.48;4.18;;;;;;;;;;5018675;28;20030;-77
2024/01/09 05:45:14;;;;;;;10.15;4.20;;;;;;;;;;5007801;28;20084;-77
2024/01/09 05:47:40;;;;;;;9.07;3.92;;;;;;;;;;5010636;28;20105;-77
2024/01/09 05:50:08;;;;;;;7.95;3.17;;;;;;;;;;5017063;28;20046;-77
2024/01/09 05:52:37;;;;;;;4.43;2.30;;;;;;;;;;5019156;28;20038;-77
2024/01/09 05:55:04;;;;;;;10.18;4.03;;;;;;;;;;5009764;28;20109;-77
2024/01/09 05:57:29;;;;;;;11.93;4.78;;;;;;;;;;5007505;28;20022;-77
2024/01/09 05:59:55;;;;;;;3.45;1.83;;;;;;;;;;5007485;28;20057;-78
2024/01/09 06:02:21;;;;;;;11.43;3.55;;;;;;;;;;5008454;28;20034;-78
2024/01/09 06:04:47;;;;;;;8.52;3.60;;;;;;;;;;5008344;28;20636;-77
2024/01/09 06:07:12;;;;;;;8.50;3.85;;;;;;;;;;5008726;28;20117;-79
2024/01/09 06:09:37;;;;;;;8.65;3.42;;;;;;;;;;5013700;28;20071;-77
2024/01/09 06:12:03;;;;;;;9.15;4.32;;;;;;;;;;5031252;28;20040;-77
2024/01/09 06:14:28;;;;;;;10.63;4.43;;;;;;;;;;5051089;28;20410;-77
2024/01/09 06:16:54;;;;;;;7.32;2.83;;;;;;;;;;5050623;28;20045;-78
2024/01/09 06:19:19;;;;;;;4.40;1.98;;;;;;;;;;5020716;28;20177;-79
2024/01/09 06:21:44;;;;;;;8.93;4.28;;;;;;;;;;5009596;28;20021;-77
2024/01/09 06:24:10;;;;;;;9.32;3.75;;;;;;;;;;5009504;28;20037;-77
2024/01/09 06:26:35;;;;;;;5.93;2.78;;;;;;;;;;5016707;28;20041;-77
2024/01/09 06:29:01;;;;;;;15.32;4.88;;;;;;;;;;5017611;28;20037;-77
2024/01/09 06:31:26;;;;;;;18.55;6.70;;;;;;;;;;5036972;28;20051;-77
2024/01/09 06:33:51;;;;;;;10.23;2.75;;;;;;;;;;5051798;28;20033;-77
2024/01/09 06:36:17;;;;;;;8.82;3.63;;;;;;;;;;5047108;28;20071;-79
2024/01/09 06:38:42;;;;;;;10.98;3.65;;;;;;;;;;5030199;28;20049;-78
2024/01/09 06:41:07;;;;;;;6.28;3.22;;;;;;;;;;5028279;28;20634;-78
2024/01/09 06:43:33;;;;;;;8.45;4.63;;;;;;;;;;5028572;28;20041;-77
2024/01/09 06:45:58;;;;;;;9.23;3.72;;;;;;;;;;5021656;28;20022;-77
2024/01/09 06:48:24;;;;;;;11.65;3.65;;;;;;;;;;5016418;28;20771;-77
2024/01/09 06:50:50;;;;;;;6.80;3.20;;;;;;;;;;5010805;28;20050;-78
2024/01/09 06:53:16;;;;;;;10.75;4.97;;;;;;;;;;5017594;28;20033;-77
2024/01/09 06:55:41;;;;;;;10.60;4.05;;;;;;;;;;5009886;28;20134;-78
2024/01/09 06:58:07;;;;;;;8.02;3.22;;;;;;;;;;5008648;28;20028;-78
2024/01/09 07:00:34;;;;;;;8.35;3.40;;;;;;;;;;5009479;28;20042;-78
2024/01/09 07:02:59;;;;;;;5.40;2.70;;;;;;;;;;5020667;28;20041;-78
2024/01/09 07:05:24;;;;;;;7.93;3.65;;;;;;;;;;5029293;28;20080;-78
2024/01/09 07:07:50;;;;;;;5.93;3.20;;;;;;;;;;5028385;28;20657;-77
2024/01/09 07:10:16;;;;;;;6.50;2.65;;;;;;;;;;5039120;28;20105;-78
2024/01/09 07:12:41;;;;;;;9.00;3.58;;;;;;;;;;5043785;28;20116;-78
2024/01/09 07:15:08;;;;;;;6.95;3.55;;;;;;;;;;5031940;28;20060;-77
2024/01/09 07:17:34;;;;;;;11.27;4.70;;;;;;;;;;5029143;28;20045;-78
2024/01/09 07:20:00;;;;;;;8.80;3.97;;;;;;;;;;5027832;28;20041;-77
2024/01/09 07:22:25;;;;;;;13.27;3.92;;;;;;;;;;5027837;28;20050;-77
2024/01/09 07:24:51;;;;;;;7.03;3.75;;;;;;;;;;5028524;28;20568;-79
2024/01/09 07:27:16;;;;;;;7.28;3.50;;;;;;;;;;5027895;28;20055;-78
2024/01/09 07:29:41;;;;;;;6.88;3.28;;;;;;;;;;5027914;28;20068;-78
2024/01/09 07:32:07;;;;;;;11.85;5.03;;;;;;;;;;5028194;28;20041;-78
2024/01/09 07:34:32;;;;;;;3.33;2.15;;;;;;;;;;5026704;28;20055;-78
2024/01/09 07:36:57;;;;;;;9.50;4.80;;;;;;;;;;5023630;28;20180;-78
2024/01/09 07:39:23;;;;;;;5.85;2.65;;;;;;;;;;5022853;28;20079;-78
2024/01/09 07:41:49;;;;;;;4.03;2.08;;;;;;;;;;5008605;28;20416;-79
2024/01/09 07:44:14;;;;;;;9.48;3.40;;;;;;;;;;5013879;28;20054;-79
2024/01/09 07:46:40;;;;;;;11.57;4.93;;;;;;;;;;5005946;28;20474;-78
2024/01/09 07:49:05;;;;;;;7.53;4.07;;;;;;;;;;5005961;28;20029;-78
2024/01/09 07:51:31;;;;;;;7.07;3.28;;;;;;;;;;5008635;28;20438;-77
2024/01/09 07:53:56;;;;;;;10.95;4.53;;;;;;;;;;5016542;28;20033;-78
2024/01/09 07:56:22;;;;;;;4.78;1.95;;;;;;;;;;5025286;28;20042;-78
2024/01/09 07:58:47;;;;;;;8.75;4.18;;;;;;;;;;5042014;28;20070;-77
2024/01/09 08:01:13;;;;;;;4.47;2.05;;;;;;;;;;5007141;28;20147;-78
2024/01/09 08:03:42;;;;;;;7.43;4.03;;;;;;;;;;5008141;28;20632;-77
2024/01/09 08:06:13;;;;;;;6.78;2.88;;;;;;;;;;5018185;28;20050;-77
2024/01/09 08:08:39;;;;;;;7.10;2.70;;;;;;;;;;5008324;28;20412;-78
2024/01/09 08:11:05;;;;;;;6.80;3.83;;;;;;;;;;5008389;28;20045;-78
2024/01/09 08:13:31;;;;;;;7.03;3.65;;;;;;;;;;5026041;28;20422;-78
2024/01/09 08:15:56;;;;;;;4.88;2.78;;;;;;;;;;5022236;28;20572;-77
2024/01/09 08:18:21;;;;;;;7.05;3.50;;;;;;;;;;5028547;28;20033;-77
2024/01/09 08:20:47;;;;;;;5.60;2.67;;;;;;;;;;5026154;28;20073;-77
2024/01/09 08:23:12;;;;;;;8.48;3.22;;;;;;;;;;5022380;28;20042;-77
2024/01/09 08:25:38;;;;;;;9.45;3.55;;;;;;;;;;5030004;28;20049;-78
2024/01/09 08:28:03;;;;;;;13.88;4.85;;;;;;;;;;5033894;28;20046;-77
2024/01/09 08:30:29;;;;;;;13.95;5.72;;;;;;;;;;5030702;28;20139;-76
2024/01/09 08:32:54;;;;;;;9.15;4.20;;;;;;;;;;5015135;28;20046;-78
2024/01/09 08:35:19;;;;;;;6.95;3.15;;;;;;;;;;5018745;28;20115;-75
2024/01/09 08:37:45;;;;;;;4.45;2.38;;;;;;;;;;5017966;28;20041;-76
2024/01/09 08:40:11;;;;;;;6.82;2.85;;;;;;;;;;5017922;28;21160;-76
2024/01/09 08:42:37;;;;;;;4.65;2.85;;;;;;;;;;5016900;28;20573;-75
2024/01/09 08:45:02;;;;;;;6.97;3.28;;;;;;;;;;5008418;28;20046;-76
2024/01/09 08:47:28;;;;;;;9.90;3.35;;;;;;;;;;5017713;28;20510;-74
2024/01/09 08:49:53;;;;;;;6.82;2.80;;;;;;;;;;5009116;28;20605;-75
2024/01/09 08:52:24;;;;;;;5.70;3.15;;;;;;;;;;5018094;28;20700;-76
2024/01/09 08:54:51;;;;;;;4.90;2.33;;;;;;;;;;5016772;28;20033;-77
2024/01/09 08:57:16;;;;;;;7.00;3.40;;;;;;;;;;5010630;28;20048;-75
2024/01/09 08:59:42;;;;;;;7.47;3.45;;;;;;;;;;5006781;28;20049;-76
2024/01/09 09:02:09;;;;;;;7.65;3.83;;;;;;;;;;5006490;28;20582;-76
2024/01/09 09:04:34;;;;;;;3.85;2.35;;;;;;;;;;5005241;28;20061;-76
2024/01/09 09:07:00;;;;;;;5.32;3.08;;;;;;;;;;5006942;28;20021;-75
2024/01/09 09:09:25;;;;;;;11.10;4.00;;;;;;;;;;5006908;28;20360;-76
2024/01/09 09:11:50;;;;;;;10.07;3.38;;;;;;;;;;5004890;28;20133;-76
2024/01/09 09:14:16;;;;;;;8.48;4.13;;;;;;;;;;5004552;28;20581;-76
2024/01/09 09:16:43;;;;;;;6.22;2.97;;;;;;;;;;5004761;28;20268;-76
2024/01/09 09:19:08;;;;;;;6.97;2.72;;;;;;;;;;5013419;28;20029;-77
2024/01/09 09:21:34;;;;;;;13.13;5.25;;;;;;;;;;5010261;28;20036;-77
2024/01/09 09:23:59;;;;;;;5.90;2.72;;;;;;;;;;5004998;28;20065;-76
2024/01/09 09:26:24;;;;;;;17.92;6.47;;;;;;;;;;5005909;28;20133;-77
2024/01/09 09:28:50;;;;;;;7.57;2.90;;;;;;;;;;5006372;28;20072;-76
2024/01/09 09:31:16;;;;;;;13.18;5.63;;;;;;;;;;5006120;28;20030;-77
2024/01/09 09:33:44;;;;;;;10.90;4.22;;;;;;;;;;5013335;28;20388;-76
2024/01/09 09:36:11;;;;;;;17.50;6.75;;;;;;;;;;5022960;28;20469;-77
2024/01/09 09:38:37;;;;;;;4.78;2.53;;;;;;;;;;5024466;28;20040;-76
2024/01/09 09:41:06;;;;;;;9.60;3.80;;;;;;;;;;5024507;28;20050;-76
2024/01/09 09:43:33;;;;;;;9.10;4.28;;;;;;;;;;5025182;28;20708;-76
2024/01/09 09:46:02;;;;;;;16.27;5.60;;;;;;;;;;5046227;28;20049;-76
2024/01/09 09:48:28;;;;;;;9.32;4.03;;;;;;;;;;5041105;28;20068;-77
2024/01/09 09:50:54;;;;;;;8.60;3.28;;;;;;;;;;5054447;28;20506;-77
2024/01/09 09:53:22;;;;;;;10.13;4.03;;;;;;;;;;5028205;28;20037;-76
2024/01/09 09:55:48;;;;;;;13.00;4.88;;;;;;;;;;5042028;28;20558;-76
2024/01/09 09:58:14;;;;;;;14.35;5.32;;;;;;;;;;5027610;28;20045;-76
2024/01/09 10:00:39;;;;;;;5.93;2.67;;;;;;;;;;5028543;28;20033;-76
2024/01/09 10:03:08;;;;;;;11.23;4.95;;;;;;;;;;5025604;28;20042;-76
2024/01/09 10:05:39;;;;;;;3.97;1.42;;;;;;;;;;5027564;28;20041;-77
2024/01/09 10:08:07;;;;;;;5.38;2.78;;;;;;;;;;5027088;28;20045;-76
2024/01/09 10:10:33;;;;;;;6.80;3.13;;;;;;;;;;5027977;28;20038;-77
2024/01/09 10:12:59;;;;;;;6.03;2.55;;;;;;;;;;5027755;28;20029;-76
2024/01/09 10:15:25;;;;;;;8.02;3.97;;;;;;;;;;5026321;28;20051;-76
2024/01/09 10:17:51;;;;;;;12.15;4.95;;;;;;;;;;5031948;28;20049;-76
2024/01/09 10:20:17;;;;;;;8.77;5.13;;;;;;;;;;5009467;28;20724;-76
2024/01/09 10:22:43;;;;;;;8.02;3.60;;;;;;;;;;5016472;28;20065;-76
2024/01/09 10:25:10;;;;;;;6.65;2.97;;;;;;;;;;5017443;28;20037;-77
2024/01/09 10:27:36;;;;;;;8.07;3.30;;;;;;;;;;5009291;28;20022;-77
2024/01/09 10:30:04;;;;;;;12.57;5.32;;;;;;;;;;5006513;28;20049;-78
2024/01/09 10:32:33;;;;;;;10.45;4.47;;;;;;;;;;5006941;28;20041;-76
2024/01/09 10:34:58;;;;;;;8.23;4.00;;;;;;;;;;5006256;28;20048;-77
2024/01/09 10:37:24;;;;;;;8.55;4.30;;;;;;;;;;5013373;28;20128;-76
2024/01/09 10:39:50;;;;;;;6.30;3.45;;;;;;;;;;5026675;28;20044;-76
2024/01/09 10:42:15;;;;;;;4.57;2.70;;;;;;;;;;5020360;28;20101;-76
2024/01/09 10:44:41;;;;;;;15.52;5.20;;;;;;;;;;5007710;28;20084;-77
2024/01/09 10:47:14;;;;;;;5.85;2.70;;;;;;;;;;5007149;28;20042;-76
2024/01/09 10:49:41;;;;;;;10.23;2.88;;;;;;;;;;5020622;28;20115;-75
2024/01/09 10:52:11;;;;;;;7.07;3.83;;;;;;;;;;5013576;28;20045;-76
2024/01/09 10:54:39;;;;;;;7.18;3.47;;;;;;;;;;5026305;28;20084;-76
2024/01/09 10:57:05;;;;;;;8.65;3.63;;;;;;;;;;5016440;28;20049;-76
2024/01/09 10:59:31;;;;;;;7.90;3.08;;;;;;;;;;5029739;28;20033;-76
2024/01/09 11:01:56;;;;;;;6.32;2.58;;;;;;;;;;5030507;28;20060;-75
2024/01/09 11:04:22;;;;;;;2.83;2.15;;;;;;;;;;5029160;28;20053;-76
2024/01/09 11:06:48;;;;;;;7.60;3.90;;;;;;;;;;5023595;28;20038;-76
2024/01/09 11:09:15;;;;;;;8.95;4.40;;;;;;;;;;5018649;28;20038;-77
2024/01/09 11:11:42;;;;;;;3.70;2.17;;;;;;;;;;5022134;28;20069;-76
2024/01/09 11:14:09;;;;;;;9.13;3.95;;;;;;;;;;5026965;28;20034;-77
2024/01/09 11:16:38;;;;;;;8.88;3.67;;;;;;;;;;5028486;28;20037;-77
2024/01/09 11:19:09;;;;;;;8.00;2.92;;;;;;;;;;5030879;28;20040;-76
2024/01/09 11:21:34;;;;;;;8.70;4.07;;;;;;;;;;5031406;28;20049;-76
2024/01/09 11:24:03;;;;;;;3.53;2.03;;;;;;;;;;5029895;28;20073;-76
2024/01/09 11:26:39;;;;;;;8.52;3.92;;;;;;;;;;5019569;28;20057;-75
2024/01/09 11:29:04;;;;;;;8.43;4.10;;;;;;;;;;5016442;28;20057;-76
2024/01/09 11:31:32;;;;;;;5.50;2.72;;;;;;;;;;5021002;28;20041;-76
2024/01/09 11:34:01;;;;;;;12.23;5.00;;;;;;;;;;5026537;28;20033;-76
2024/01/09 11:36:27;;;;;;;5.82;2.78;;;;;;;;;;5020843;28;20025;-74
2024/01/09 11:38:54;;;;;;;5.22;2.60;;;;;;;;;;5014303;28;20046;-76
2024/01/09 11:41:23;;;;;;;9.20;3.75;;;;;;;;;;5019247;28;20037;-75
2024/01/09 11:44:03;;;;;;;4.15;2.05;;;;;;;;;;5018416;28;20132;-75
2024/01/09 11:46:39;;;;;;;6.63;3.15;;;;;;;;;;5016726;28;20048;-76
2024/01/09 11:49:09;;;;;;;8.32;3.33;;;;;;;;;;5027998;28;20075;-76
2024/01/09 11:51:35;;;;;;;5.95;2.90;;;;;;;;;;5030413;28;20037;-76
2024/01/09 11:54:02;;;;;;;10.63;3.78;;;;;;;;;;5023800;28;20072;-76
2024/01/09 11:56:28;;;;;;;7.93;3.50;;;;;;;;;;5011618;28;20060;-75
2024/01/09 11:58:54;;;;;;;7.65;3.33;;;;;;;;;;5007698;28;20045;-76
2024/01/09 12:01:21;;;;;;;7.65;3.40;;;;;;;;;;5007934;28;20042;-76
2024/01/09 12:03:53;;;;;;;14.27;3.17;;;;;;;;;;5007859;28;20120;-76
2024/01/09 12:06:21;;;;;;;5.65;2.83;;;;;;;;;;5007445;28;20089;-75
2024/01/09 12:08:46;;;;;;;8.18;3.25;;;;;;;;;;5007641;28;20103;-75
2024/01/09 12:11:12;;;;;;;3.83;2.47;;;;;;;;;;5007652;28;20046;-76
2024/01/09 12:13:37;;;;;;;8.70;3.25;;;;;;;;;;5006966;28;20161;-76
2024/01/09 12:16:16;;;;;;;3.20;2.15;;;;;;;;;;5008492;28;20033;-75
2024/01/09 12:18:48;;;;;;;6.13;2.35;;;;;;;;;;5009671;28;20548;-76
2024/01/09 12:21:15;;;;;;;8.95;3.47;;;;;;;;;;5010116;28;20523;-76
2024/01/09 12:23:41;;;;;;;5.20;2.45;;;;;;;;;;5014857;28;20050;-75
2024/01/09 12:26:06;;;;;;;7.95;2.88;;;;;;;;;;5023888;28;20052;-76
2024/01/09 12:28:33;;;;;;;8.93;4.15;;;;;;;;;;5019924;28;20034;-76
2024/01/09 12:31:02;;;;;;;5.47;2.67;;;;;;;;;;5009453;28;20116;-75
2024/01/09 12:33:29;;;;;;;6.53;3.60;;;;;;;;;;5008468;28;20040;-75
2024/01/09 12:35:56;;;;;;;6.57;3.17;;;;;;;;;;5007264;28;20136;-75
2024/01/09 12:38:22;;;;;;;6.95;3.15;;;;;;;;;;5021221;28;20040;-75
2024/01/09 12:41:00;;;;;;;8.30;3.42;;;;;;;;;;5025029;28;20030;-76
2024/01/09 12:43:27;;;;;;;6.15;3.40;;;;;;;;;;5012398;28;20037;-75
2024/01/09 12:45:53;;;;;;;6.68;3.67;;;;;;;;;;5006095;28;20099;-76
2024/01/09 12:48:20;;;;;;;4.35;2.10;;;;;;;;;;5016372;28;20029;-76
2024/01/09 12:50:59;;;;;;;10.25;2.97;;;;;;;;;;5024735;28;20041;-76
2024/01/09 12:53:26;;;;;;;10.13;3.58;;;;;;;;;;5012665;28;20038;-76
2024/01/09 12:56:13;;;;;;;5.32;3.28;;;;;;;;;;5008036;28;20037;-76
2024/01/09 12:58:47;;;;;;;3.33;1.88;;;;;;;;;;5023567;28;20029;-76
2024/01/09 13:01:14;;;;;;;5.22;2.30;;;;;;;;;;5027029;28;20457;-76
2024/01/09 13:03:39;;;;;;;8.27;3.65;;;;;;;;;;5025080;28;20505;-76
2024/01/09 13:06:06;;;;;;;9.02;3.78;;;;;;;;;;5026681;28;20065;-76
2024/01/09 13:08:34;;;;;;;6.43;3.75;;;;;;;;;;5026148;28;20042;-76
2024/01/09 13:11:04;;;;;;;7.15;3.30;;;;;;;;;;5025927;28;20038;-76
2024/01/09 13:13:37;;;;;;;9.50;4.13;;;;;;;;;;5062328;28;20064;-75
2024/01/09 13:16:06;;;;;;;8.95;3.88;;;;;;;;;;5049323;28;20025;-76
2024/01/09 13:18:32;;;;;;;13.90;5.10;;;;;;;;;;5037354;28;20025;-76
2024/01/09 13:21:02;;;;;;;6.32;2.97;;;;;;;;;;5029067;28;20026;-75
2024/01/09 13:23:29;;;;;;;10.05;4.00;;;;;;;;;;5029424;28;20044;-75
2024/01/09 13:25:54;;;;;;;6.40;3.33;;;;;;;;;;5035339;28;20046;-76
2024/01/09 13:28:20;;;;;;;7.88;3.97;;;;;;;;;;5043688;28;20041;-76
2024/01/09 13:30:46;;;;;;;8.35;3.78;;;;;;;;;;5039703;28;20022;-77
2024/01/09 13:33:13;;;;;;;5.05;2.75;;;;;;;;;;5049745;28;20041;-76
2024/01/09 13:35:39;;;;;;;6.18;2.95;;;;;;;;;;5049299;28;20093;-77
2024/01/09 13:38:05;;;;;;;8.05;3.47;;;;;;;;;;5058183;28;20041;-76
2024/01/09 13:40:38;;;;;;;6.68;2.97;;;;;;;;;;5049874;28;20033;-75
2024/01/09 13:43:07;;;;;;;8.48;2.88;;;;;;;;;;5045911;28;20033;-76
2024/01/09 13:45:33;;;;;;;6.65;2.92;;;;;;;;;;5053049;28;20533;-75
2024/01/09 13:47:59;;;;;;;7.25;3.00;;;;;;;;;;5035788;28;20124;-76
2024/01/09 13:50:25;;;;;;;5.78;3.00;;;;;;;;;;5040823;28;20100;-76
2024/01/09 13:52:54;;;;;;;8.35;3.65;;;;;;;;;;5048357;28;20104;-77
2024/01/09 13:55:20;;;;;;;7.97;4.47;;;;;;;;;;5049206;28;20056;-75
2024/01/09 13:57:48;;;;;;;9.80;3.35;;;;;;;;;;5051580;28;20042;-76
2024/01/09 14:00:16;;;;;;;5.95;2.67;;;;;;;;;;5048291;28;20037;-73
2024/01/09 14:02:44;;;;;;;6.35;2.63;;;;;;;;;;5050552;28;20022;-76
2024/01/09 14:05:12;;;;;;;6.78;3.13;;;;;;;;;;5049787;28;20105;-75
2024/01/09 14:07:38;;;;;;;7.78;3.95;;;;;;;;;;5047171;28;20046;-74
2024/01/09 14:10:06;;;;;;;7.32;2.97;;;;;;;;;;5048008;28;20084;-75
2024/01/09 14:12:34;;;;;;;12.32;3.40;;;;;;;;;;5050392;28;20041;-76
2024/01/09 14:15:03;;;;;;;6.90;2.88;;;;;;;;;;5049142;28;20084;-74
2024/01/09 14:17:29;;;;;;;5.20;2.95;;;;;;;;;;5047596;28;20068;-74
2024/01/09 14:19:58;;;;;;;4.93;2.22;;;;;;;;;;5048355;28;20037;-75
2024/01/09 14:22:27;;;;;;;5.93;2.83;;;;;;;;;;5040779;28;20075;-76
2024/01/09 14:24:52;;;;;;;5.00;2.35;;;;;;;;;;5023907;28;20426;-82
2024/01/09 14:27:22;;;;;;;6.82;2.92;;;;;;;;;;5029554;28;20025;-74
2024/01/09 14:29:50;;;;;;;7.10;3.38;;;;;;;;;;5038629;28;20056;-76
2024/01/09 14:32:17;;;;;;;5.93;2.85;;;;;;;;;;5021213;28;20038;-78
2024/01/09 14:34:42;;;;;;;8.77;3.58;;;;;;;;;;5014783;28;20067;-76
2024/01/09 14:37:07;;;;;;;7.50;3.60;;;;;;;;;;5011225;28;20029;-76